DHK2015 LYTV-LGKR
Flight info
| Callsign | DHK2015 |
|---|---|
| Flight time | 0h 34m |
| Altitude | 19000 |
| Route | LASTI L187 RODON N732 PITAS |
| Aircraft | B738/M-SDE2E3FGHIRWXY/LB1 |
Departure
| Time | 2026-04-27 22:44 |
|---|---|
| Airport | Tivat Airport (LYTV) |
Arrival
| Time | 2026-04-27 23:19 |
|---|---|
| Airport | Corfu Ioannis Kapodistrias International Airport (LGKR) |
| Time | Latitude | Longitude | Altitude | Speed | Heading |
|---|---|---|---|---|---|
| 2026-04-27 22:20 | 42.41169 | 18.71749 | -7 ft | 0 kts | 165° |
| 2026-04-27 22:39 | 42.41168 | 18.71750 | -19 ft | 0 kts | 165° |
| 2026-04-27 22:39 | 42.41153 | 18.71753 | -21 ft | 5 kts | 168° |
| 2026-04-27 22:39 | 42.41111 | 18.71793 | -19 ft | 10 kts | 139° |
| 2026-04-27 22:40 | 42.41035 | 18.71865 | -20 ft | 15 kts | 164° |
| 2026-04-27 22:40 | 42.40981 | 18.71837 | -18 ft | 6 kts | 233° |
| 2026-04-27 22:40 | 42.40957 | 18.71794 | -21 ft | 6 kts | 224° |
| 2026-04-27 22:40 | 42.40919 | 18.71798 | -22 ft | 7 kts | 148° |
| 2026-04-27 22:41 | 42.40865 | 18.71861 | -21 ft | 15 kts | 139° |
| 2026-04-27 22:41 | 42.40758 | 18.71986 | -22 ft | 26 kts | 139° |
| 2026-04-27 22:41 | 42.40593 | 18.72181 | -20 ft | 36 kts | 139° |
| 2026-04-27 22:41 | 42.40381 | 18.72432 | -19 ft | 44 kts | 139° |
| 2026-04-27 22:42 | 42.40134 | 18.72726 | -18 ft | 51 kts | 139° |
| 2026-04-27 22:42 | 42.39860 | 18.73052 | -25 ft | 52 kts | 139° |
| 2026-04-27 22:42 | 42.39650 | 18.73272 | -24 ft | 1 kts | 120° |
| 2026-04-27 22:43 | 42.39650 | 18.73276 | -24 ft | 1 kts | 89° |
| 2026-04-27 22:43 | 42.39657 | 18.73278 | -23 ft | 1 kts | 4° |
| 2026-04-27 22:43 | 42.39665 | 18.73270 | -22 ft | 2 kts | 321° |
| 2026-04-27 22:44 | 42.39687 | 18.73247 | -22 ft | 13 kts | 320° |
| 2026-04-27 22:44 | 42.39997 | 18.72884 | -20 ft | 103 kts | 319° |
| 2026-04-27 22:44 | 42.40734 | 18.71998 | -13 ft | 177 kts | 322° |
| 2026-04-27 22:44 | 42.41730 | 18.70895 | 742 ft | 189 kts | 320° |
| 2026-04-27 22:45 | 42.42342 | 18.69408 | 1915 ft | 181 kts | 276° |
| 2026-04-27 22:45 | 42.42016 | 18.67662 | 2453 ft | 211 kts | 234° |
| 2026-04-27 22:45 | 42.40809 | 18.66399 | 2821 ft | 229 kts | 208° |
| 2026-04-27 22:45 | 42.39404 | 18.65285 | 3481 ft | 237 kts | 213° |
| 2026-04-27 22:46 | 42.38046 | 18.64004 | 3906 ft | 239 kts | 217° |
| 2026-04-27 22:46 | 42.36712 | 18.62619 | 4407 ft | 244 kts | 218° |
| 2026-04-27 22:46 | 42.35391 | 18.61190 | 5327 ft | 243 kts | 219° |
| 2026-04-27 22:46 | 42.34085 | 18.59754 | 6273 ft | 241 kts | 219° |
| 2026-04-27 22:47 | 42.32643 | 18.58642 | 7066 ft | 242 kts | 194° |
| 2026-04-27 22:47 | 42.30932 | 18.58552 | 7681 ft | 252 kts | 174° |
| 2026-04-27 22:47 | 42.29173 | 18.58848 | 8423 ft | 258 kts | 173° |
| 2026-04-27 22:47 | 42.27383 | 18.59160 | 9226 ft | 261 kts | 173° |
| 2026-04-27 22:48 | 42.25567 | 18.59466 | 10048 ft | 264 kts | 174° |
| 2026-04-27 22:48 | 42.23765 | 18.60001 | 10723 ft | 269 kts | 154° |
| 2026-04-27 22:48 | 42.22281 | 18.61578 | 11217 ft | 282 kts | 127° |
| 2026-04-27 22:48 | 42.21173 | 18.63848 | 11741 ft | 294 kts | 122° |
| 2026-04-27 22:49 | 42.20101 | 18.66234 | 12458 ft | 299 kts | 121° |
| 2026-04-27 22:49 | 42.19038 | 18.68624 | 13237 ft | 302 kts | 121° |
| 2026-04-27 22:49 | 42.17945 | 18.71068 | 14012 ft | 306 kts | 121° |
| 2026-04-27 22:49 | 42.16839 | 18.73528 | 14694 ft | 309 kts | 121° |
| 2026-04-27 22:50 | 42.15715 | 18.76020 | 15405 ft | 312 kts | 121° |
| 2026-04-27 22:50 | 42.14581 | 18.78525 | 16105 ft | 315 kts | 121° |
| 2026-04-27 22:50 | 42.13427 | 18.81061 | 16802 ft | 318 kts | 122° |
| 2026-04-27 22:50 | 42.12260 | 18.83613 | 17498 ft | 322 kts | 122° |
| 2026-04-27 22:51 | 42.11069 | 18.86187 | 18196 ft | 325 kts | 125° |
| 2026-04-27 22:51 | 42.09459 | 18.88334 | 18788 ft | 330 kts | 147° |
| 2026-04-27 22:51 | 42.07325 | 18.89579 | 19068 ft | 344 kts | 163° |
| 2026-04-27 22:51 | 42.04972 | 18.90426 | 19080 ft | 363 kts | 166° |
| 2026-04-27 22:52 | 42.02457 | 18.91223 | 19091 ft | 380 kts | 167° |
| 2026-04-27 22:52 | 41.99817 | 18.92042 | 19095 ft | 396 kts | 167° |
| 2026-04-27 22:52 | 41.97083 | 18.92906 | 19097 ft | 411 kts | 167° |
| 2026-04-27 22:52 | 41.94222 | 18.93833 | 19094 ft | 424 kts | 166° |
| 2026-04-27 22:53 | 41.91354 | 18.94781 | 19089 ft | 434 kts | 166° |
| 2026-04-27 22:53 | 41.88414 | 18.95766 | 19076 ft | 436 kts | 166° |
| 2026-04-27 22:53 | 41.85476 | 18.96754 | 19067 ft | 434 kts | 166° |
| 2026-04-27 22:53 | 41.82549 | 18.97739 | 19072 ft | 433 kts | 166° |
| 2026-04-27 22:54 | 41.79642 | 18.98715 | 19071 ft | 432 kts | 166° |
| 2026-04-27 22:54 | 41.76725 | 18.99693 | 19069 ft | 432 kts | 166° |
| 2026-04-27 22:54 | 41.73790 | 19.00675 | 19069 ft | 432 kts | 166° |
| 2026-04-27 22:54 | 41.70870 | 19.01651 | 19074 ft | 433 kts | 166° |
| 2026-04-27 22:55 | 41.67936 | 19.02631 | 19075 ft | 433 kts | 166° |
| 2026-04-27 22:55 | 41.65010 | 19.03608 | 19076 ft | 434 kts | 166° |
| 2026-04-27 22:55 | 41.62073 | 19.04588 | 19078 ft | 434 kts | 167° |
| 2026-04-27 22:55 | 41.59139 | 19.05566 | 19075 ft | 434 kts | 167° |
| 2026-04-27 22:56 | 41.56209 | 19.06543 | 19075 ft | 435 kts | 167° |
| 2026-04-27 22:56 | 41.53267 | 19.07524 | 19076 ft | 435 kts | 167° |
| 2026-04-27 22:56 | 41.50334 | 19.08499 | 19074 ft | 435 kts | 167° |
| 2026-04-27 22:56 | 41.47437 | 19.09460 | 19077 ft | 435 kts | 167° |
| 2026-04-27 22:57 | 41.44475 | 19.10538 | 19074 ft | 435 kts | 163° |
| 2026-04-27 22:57 | 41.41650 | 19.11852 | 19084 ft | 436 kts | 161° |
| 2026-04-27 22:57 | 41.38804 | 19.13265 | 19083 ft | 436 kts | 160° |
| 2026-04-27 22:57 | 41.35958 | 19.14703 | 19076 ft | 436 kts | 161° |
| 2026-04-27 22:58 | 41.33123 | 19.16131 | 19075 ft | 436 kts | 161° |
| 2026-04-27 22:58 | 41.30277 | 19.17551 | 19078 ft | 436 kts | 161° |
| 2026-04-27 22:58 | 41.27432 | 19.18956 | 19079 ft | 436 kts | 161° |
| 2026-04-27 22:58 | 41.24576 | 19.20355 | 19079 ft | 437 kts | 162° |
| 2026-04-27 22:59 | 41.21719 | 19.21748 | 19079 ft | 437 kts | 162° |
| 2026-04-27 22:59 | 41.18895 | 19.23121 | 19073 ft | 437 kts | 162° |
| 2026-04-27 22:59 | 41.16036 | 19.24509 | 19076 ft | 438 kts | 162° |
| 2026-04-27 22:59 | 41.13177 | 19.25895 | 19079 ft | 438 kts | 162° |
| 2026-04-27 23:00 | 41.07444 | 19.28672 | 19075 ft | 438 kts | 162° |
| 2026-04-27 23:00 | 41.04581 | 19.30057 | 19074 ft | 438 kts | 162° |
| 2026-04-27 23:00 | 41.01712 | 19.31444 | 19076 ft | 438 kts | 162° |
| 2026-04-27 23:01 | 40.98846 | 19.32828 | 19076 ft | 439 kts | 162° |
| 2026-04-27 23:01 | 40.95972 | 19.34215 | 19060 ft | 440 kts | 162° |
| 2026-04-27 23:01 | 40.93101 | 19.35600 | 19066 ft | 438 kts | 163° |
| 2026-04-27 23:01 | 40.90228 | 19.36985 | 19073 ft | 439 kts | 163° |
| 2026-04-27 23:02 | 40.87364 | 19.38362 | 19079 ft | 439 kts | 163° |
| 2026-04-27 23:02 | 40.84490 | 19.39744 | 19083 ft | 439 kts | 163° |
| 2026-04-27 23:02 | 40.81615 | 19.41126 | 19074 ft | 439 kts | 163° |
| 2026-04-27 23:02 | 40.78740 | 19.42506 | 19075 ft | 439 kts | 163° |
| 2026-04-27 23:03 | 40.75869 | 19.43884 | 19073 ft | 438 kts | 163° |
| 2026-04-27 23:03 | 40.73058 | 19.45233 | 19058 ft | 418 kts | 163° |
| 2026-04-27 23:03 | 40.70446 | 19.46485 | 19050 ft | 391 kts | 163° |
| 2026-04-27 23:03 | 40.67956 | 19.47674 | 18839 ft | 372 kts | 163° |
| 2026-04-27 23:04 | 40.65527 | 19.48832 | 18421 ft | 361 kts | 163° |
| 2026-04-27 23:04 | 40.63167 | 19.49956 | 17456 ft | 363 kts | 163° |
| 2026-04-27 23:04 | 40.60791 | 19.51087 | 16270 ft | 373 kts | 162° |
| 2026-04-27 23:04 | 40.58327 | 19.52262 | 15167 ft | 379 kts | 162° |
| 2026-04-27 23:05 | 40.55846 | 19.53446 | 14285 ft | 377 kts | 161° |
| 2026-04-27 23:05 | 40.53392 | 19.54610 | 13720 ft | 373 kts | 161° |
| 2026-04-27 23:05 | 40.50951 | 19.55763 | 13163 ft | 371 kts | 161° |
| 2026-04-27 23:05 | 40.48534 | 19.56905 | 12654 ft | 367 kts | 161° |
| 2026-04-27 23:06 | 40.46134 | 19.58039 | 12160 ft | 364 kts | 161° |
| 2026-04-27 23:06 | 40.43764 | 19.59159 | 11694 ft | 360 kts | 161° |
| 2026-04-27 23:06 | 40.41421 | 19.60268 | 11222 ft | 356 kts | 161° |
| 2026-04-27 23:06 | 40.39113 | 19.61360 | 10963 ft | 347 kts | 161° |
| 2026-04-27 23:07 | 40.36874 | 19.62416 | 10811 ft | 335 kts | 161° |
| 2026-04-27 23:07 | 40.34719 | 19.63432 | 10674 ft | 323 kts | 161° |
| 2026-04-27 23:07 | 40.32637 | 19.64411 | 10542 ft | 313 kts | 161° |
| 2026-04-27 23:07 | 40.30642 | 19.65350 | 10418 ft | 303 kts | 161° |
| 2026-04-27 23:08 | 40.28694 | 19.66266 | 10288 ft | 293 kts | 161° |
| 2026-04-27 23:08 | 40.26800 | 19.67156 | 10168 ft | 284 kts | 161° |
| 2026-04-27 23:08 | 40.24965 | 19.68018 | 10035 ft | 277 kts | 161° |
| 2026-04-27 23:08 | 40.23158 | 19.68867 | 9728 ft | 275 kts | 161° |
| 2026-04-27 23:09 | 40.21363 | 19.69711 | 9443 ft | 273 kts | 161° |
| 2026-04-27 23:09 | 40.19584 | 19.70548 | 9167 ft | 271 kts | 160° |
| 2026-04-27 23:09 | 40.17818 | 19.71378 | 8899 ft | 269 kts | 161° |
| 2026-04-27 23:09 | 40.16061 | 19.72203 | 8629 ft | 267 kts | 160° |
| 2026-04-27 23:10 | 40.14540 | 19.72918 | 8377 ft | 266 kts | 160° |
| 2026-04-27 23:10 | 40.12802 | 19.73734 | 8109 ft | 265 kts | 161° |
| 2026-04-27 23:10 | 40.11091 | 19.74538 | 7836 ft | 258 kts | 160° |
| 2026-04-27 23:10 | 40.09429 | 19.75318 | 7556 ft | 250 kts | 160° |
| 2026-04-27 23:11 | 40.08356 | 19.75820 | 7388 ft | 245 kts | 161° |
| 2026-04-27 23:11 | 40.06751 | 19.76573 | 7150 ft | 244 kts | 161° |
| 2026-04-27 23:11 | 40.05144 | 19.77326 | 6913 ft | 247 kts | 160° |
| 2026-04-27 23:11 | 40.03488 | 19.78104 | 6670 ft | 259 kts | 160° |
| 2026-04-27 23:12 | 40.01776 | 19.78908 | 6391 ft | 261 kts | 160° |
| 2026-04-27 23:12 | 40.00089 | 19.79700 | 6089 ft | 254 kts | 160° |
| 2026-04-27 23:12 | 39.98454 | 19.80468 | 5812 ft | 246 kts | 160° |
| 2026-04-27 23:12 | 39.96859 | 19.81216 | 5558 ft | 240 kts | 160° |
| 2026-04-27 23:13 | 39.95281 | 19.81955 | 5309 ft | 241 kts | 160° |
| 2026-04-27 23:13 | 39.93690 | 19.82697 | 5062 ft | 247 kts | 161° |
| 2026-04-27 23:13 | 39.92027 | 19.83470 | 4742 ft | 258 kts | 160° |
| 2026-04-27 23:13 | 39.90339 | 19.84254 | 4457 ft | 255 kts | 160° |
| 2026-04-27 23:14 | 39.88690 | 19.84895 | 4319 ft | 241 kts | 169° |
| 2026-04-27 23:14 | 39.87076 | 19.85258 | 4187 ft | 228 kts | 172° |
| 2026-04-27 23:14 | 39.85531 | 19.85561 | 4101 ft | 224 kts | 172° |
| 2026-04-27 23:14 | 39.83980 | 19.85867 | 4028 ft | 230 kts | 172° |
| 2026-04-27 23:15 | 39.82408 | 19.86187 | 3871 ft | 227 kts | 171° |
| 2026-04-27 23:15 | 39.80862 | 19.86510 | 3629 ft | 223 kts | 171° |
| 2026-04-27 23:15 | 39.79333 | 19.86834 | 3412 ft | 222 kts | 171° |
| 2026-04-27 23:15 | 39.77832 | 19.87160 | 3234 ft | 212 kts | 170° |
| 2026-04-27 23:16 | 39.76421 | 19.87545 | 3079 ft | 208 kts | 169° |
| 2026-04-27 23:16 | 39.75026 | 19.87937 | 2865 ft | 208 kts | 166° |
| 2026-04-27 23:16 | 39.73602 | 19.88268 | 2521 ft | 209 kts | 173° |
| 2026-04-27 23:16 | 39.72156 | 19.88494 | 2244 ft | 207 kts | 171° |
| 2026-04-27 23:17 | 39.70720 | 19.88790 | 1746 ft | 215 kts | 170° |
| 2026-04-27 23:17 | 39.69235 | 19.89111 | 1414 ft | 214 kts | 171° |
| 2026-04-27 23:17 | 39.67775 | 19.89381 | 1137 ft | 210 kts | 172° |
| 2026-04-27 23:17 | 39.66381 | 19.89674 | 953 ft | 197 kts | 168° |
| 2026-04-27 23:18 | 39.65075 | 19.89996 | 692 ft | 188 kts | 167° |
| 2026-04-27 23:18 | 39.63834 | 19.90343 | 504 ft | 174 kts | 169° |
| 2026-04-27 23:18 | 39.62732 | 19.90592 | 429 ft | 158 kts | 169° |
| 2026-04-27 23:18 | 39.61653 | 19.90847 | 206 ft | 157 kts | 169° |
| 2026-04-27 23:19 | 39.60593 | 19.91113 | 13 ft | 152 kts | 168° |
| 2026-04-27 23:19 | 39.59878 | 19.91296 | 16 ft | 49 kts | 169° |
| 2026-04-27 23:19 | 39.59794 | 19.91315 | 15 ft | 2 kts | 172° |
| 2026-04-27 23:19 | 39.59778 | 19.91316 | 15 ft | 3 kts | 174° |
| 2026-04-27 23:20 | 39.59770 | 19.91328 | 16 ft | 0 kts | 105° |
| 2026-04-27 23:20 | 39.59772 | 19.91331 | 16 ft | 0 kts | 73° |
| 2026-04-27 23:20 | 39.59774 | 19.91332 | 16 ft | 0 kts | 50° |
| 2026-04-27 23:20 | 39.59778 | 19.91331 | 16 ft | 1 kts | 360° |